Alna, Maine
Current Conditions -  °F | °C
As of 2:53 AM on Friday 24 Oct 2014 (Local Time) from KIWI Reporting Station
Light Rain Light Rain  
Wind Chill: 45°   Ceiling: 1000
Heat Index: 48°   Visibility: 8mi
Dew Point: 45°   Wind: 7mph
Humidity: 89%   Direction: NA
Pressure: 29.67"   Gusts: NA
Location:  44.11°N, 69.6°W
Report Text: KIWI 240653Z AUTO VRB06KT 8SM -RA OVC010 09/07 A2967 RMK AO2 RAE08B52 CIG 007V014 SLP047 P0000 T00890072
Loading
Personal Weather Stations






























Interactive Weather Map
Tropical Storm Tracking
New forecast layout! Learn more

10-Day Weather Forecast

Advertisements
Track Severe Weather on mobile